Time;durP1;ratioP1;P1;durP2;ratioP2;P2;SDS_P1;SDS_P2;PMS_P1;PMS_P2;Temp;Humidity;BMP_temperature;BMP_pressure;BME280_temperature;BME280_humidity;BME280_pressure;Samples;Min_cycle;Max_cycle;Signal;HPM_P1;HPM_P2
2022/09/01 00:01:42;;;;;;;3.70;2.30;;;;;;;17.05;59.98;100767.69;4902960;29;20072;-78
2022/09/01 00:04:12;;;;;;;2.47;2.22;;;;;;;17.02;60.17;100762.53;4903438;29;20068;-76
2022/09/01 00:06:39;;;;;;;2.17;1.98;;;;;;;16.94;60.03;100732.78;4898757;29;20657;-76
2022/09/01 00:09:13;;;;;;;3.80;2.35;;;;;;;17.09;59.68;100755.81;4900214;29;20076;-76
2022/09/01 00:11:42;;;;;;;3.47;2.33;;;;;;;17.09;59.77;100765.66;4905857;29;20056;-78
2022/09/01 00:14:18;;;;;;;2.30;2.10;;;;;;;17.03;59.97;100766.94;4897515;29;20048;-76
2022/09/01 00:16:58;;;;;;;2.47;2.22;;;;;;;16.92;59.82;100748.09;4899313;29;20406;-76
2022/09/01 00:19:25;;;;;;;2.53;1.92;;;;;;;17.01;59.65;100770.66;4905531;29;20061;-75
2022/09/01 00:21:52;;;;;;;4.30;2.28;;;;;;;16.98;60.23;100768.22;4894925;29;20056;-73
2022/09/01 00:24:19;;;;;;;4.10;2.00;;;;;;;16.92;60.13;100761.47;4904096;29;20072;-76
2022/09/01 00:26:46;;;;;;;2.58;2.30;;;;;;;16.91;60.06;100772.25;4907402;29;20068;-75
2022/09/01 00:29:13;;;;;;;3.15;2.20;;;;;;;16.86;60.67;100766.34;4901529;29;20722;-76
2022/09/01 00:31:40;;;;;;;2.45;2.13;;;;;;;16.88;60.32;100781.34;4897641;29;20044;-76
2022/09/01 00:34:07;;;;;;;3.30;2.35;;;;;;;16.90;60.16;100762.53;4900743;29;20439;-75
2022/09/01 00:36:33;;;;;;;2.30;2.10;;;;;;;16.91;60.16;100769.59;4901422;29;20139;-75
2022/09/01 00:39:03;;;;;;;4.18;1.80;;;;;;;16.86;60.01;100758.34;4897123;29;20068;-75
2022/09/01 00:41:32;;;;;;;4.30;2.03;;;;;;;16.87;60.27;100766.25;4902666;29;20156;-75
2022/09/01 00:44:04;;;;;;;4.25;1.83;;;;;;;16.82;60.27;100758.56;4894482;29;20067;-75
2022/09/01 00:46:37;;;;;;;3.35;2.00;;;;;;;16.85;60.48;100765.50;4895166;29;20052;-75
2022/09/01 00:49:20;;;;;;;3.90;2.10;;;;;;;16.79;60.41;100753.41;4894544;29;20468;-74
2022/09/01 00:51:52;;;;;;;1.90;1.77;;;;;;;16.80;60.33;100764.97;4903881;29;20044;-73
2022/09/01 00:54:26;;;;;;;5.22;2.03;;;;;;;16.76;60.47;100761.63;4904137;29;20111;-76
2022/09/01 00:56:54;;;;;;;4.38;2.30;;;;;;;16.71;60.76;100754.88;4900748;29;20080;-76
2022/09/01 00:59:25;;;;;;;3.75;2.15;;;;;;;16.70;60.83;100756.69;4902758;29;20048;-76
2022/09/01 01:01:53;;;;;;;4.43;2.25;;;;;;;16.47;60.85;100719.91;4905792;29;20049;-75
2022/09/01 01:04:20;;;;;;;3.50;2.30;;;;;;;16.62;61.36;100758.13;4908760;29;20144;-72
2022/09/01 01:06:57;;;;;;;2.40;2.20;;;;;;;16.56;61.15;100753.19;4915941;29;20055;-72
2022/09/01 01:09:28;;;;;;;2.30;2.10;;;;;;;16.56;61.27;100761.19;4918836;29;20207;-72
2022/09/01 01:11:56;;;;;;;2.65;2.40;;;;;;;16.36;61.45;100733.13;4916187;29;20071;-76
2022/09/01 01:14:23;;;;;;;2.60;2.40;;;;;;;16.31;61.78;100721.88;4912594;29;20135;-76
2022/09/01 01:16:51;;;;;;;4.10;2.42;;;;;;;16.43;61.91;100748.66;4907097;29;20079;-76
2022/09/01 01:25:12;;;;;;;7.00;2.03;;;;;;;16.30;62.51;100747.75;4915314;29;20048;-75
2022/09/01 01:27:42;;;;;;;2.40;2.20;;;;;;;16.29;62.56;100742.50;4905695;29;20056;-75
2022/09/01 01:30:11;;;;;;;2.40;2.03;;;;;;;16.11;62.92;100721.34;4907090;29;20054;-74
2022/09/01 01:32:41;;;;;;;3.42;2.45;;;;;;;16.21;62.89;100742.16;4907603;29;20944;-77
2022/09/01 01:35:13;;;;;;;2.80;2.17;;;;;;;16.15;63.32;100740.72;4900391;29;20044;-77
2022/09/01 01:37:45;;;;;;;4.63;2.40;;;;;;;16.09;63.85;100741.09;4903961;29;20495;-77
2022/09/01 01:40:15;;;;;;;3.35;2.40;;;;;;;16.06;63.85;100735.94;4897810;29;20052;-75
2022/09/01 01:42:44;;;;;;;;;;;;;;;16.06;63.87;100742.16;4904889;29;20048;-74
2022/09/01 01:45:16;;;;;;;4.07;2.42;;;;;;;15.94;63.84;100716.22;4900324;29;19927;-75
2022/09/01 01:47:52;;;;;;;4.35;2.53;;;;;;;16.06;63.80;100734.13;4903218;29;20442;-78
2022/09/01 01:50:24;;;;;;;2.50;2.30;;;;;;;16.06;63.94;100742.16;4905314;29;20056;-75
2022/09/01 01:52:51;;;;;;;2.88;2.33;;;;;;;15.99;64.32;100737.31;4904516;29;20079;-73
2022/09/01 01:55:27;;;;;;;3.22;2.40;;;;;;;15.82;64.29;100709.00;4895787;29;20055;-76
2022/09/01 01:57:55;;;;;;;3.80;2.20;;;;;;;16.00;64.17;100739.03;4894808;29;20075;-75
2022/09/01 02:00:25;;;;;;;2.50;2.30;;;;;;;15.95;64.29;100731.31;4901179;29;20058;-76
2022/09/01 02:02:57;;;;;;;2.33;2.13;;;;;;;15.96;64.73;100735.69;4905754;29;20475;-75
2022/09/01 02:05:30;;;;;;;2.53;2.33;;;;;;;15.95;64.66;100733.13;4895641;29;20620;-75
2022/09/01 02:08:04;;;;;;;4.55;2.53;;;;;;;15.90;64.56;100738.75;4901881;29;20047;-76
2022/09/01 02:10:34;;;;;;;2.83;2.60;;;;;;;15.87;64.93;100740.78;4903307;29;20465;-75
2022/09/01 02:13:05;;;;;;;3.00;2.20;;;;;;;15.89;65.10;100741.53;4899717;29;20787;-74
2022/09/01 02:15:38;;;;;;;2.58;2.30;;;;;;;15.89;64.84;100733.53;4899642;29;20056;-76
2022/09/01 02:18:05;;;;;;;4.80;2.60;;;;;;;15.83;65.30;100729.41;4902334;29;21135;-76
2022/09/01 02:20:31;;;;;;;3.30;2.83;;;;;;;15.71;65.23;100708.84;4902508;29;20056;-75
2022/09/01 02:23:08;;;;;;;6.70;2.42;;;;;;;15.71;65.79;100711.50;4903633;29;20088;-75
2022/09/01 02:25:36;;;;;;;2.97;2.13;;;;;;;15.76;65.51;100720.94;4901250;29;20090;-73
2022/09/01 02:28:23;;;;;;;2.78;2.55;;;;;;;15.57;65.43;100696.38;4923489;29;20096;-73
2022/09/01 02:30:53;;;;;;;2.83;2.60;;;;;;;15.58;65.56;100708.75;4902090;29;20066;-76
2022/09/01 02:33:21;;;;;;;4.53;2.70;;;;;;;15.70;65.88;100728.50;4910443;29;20067;-74
2022/09/01 02:35:52;;;;;;;4.25;2.70;;;;;;;15.69;66.03;100727.63;4901305;29;20080;-76
2022/09/01 02:38:22;;;;;;;3.63;2.75;;;;;;;15.65;66.19;100728.75;4896754;29;20076;-74
2022/09/01 02:40:49;;;;;;;3.97;2.60;;;;;;;15.65;66.22;100728.75;4905081;29;20501;-75
2022/09/01 02:43:19;;;;;;;3.00;2.65;;;;;;;15.70;66.43;100732.00;4893758;29;20131;-75
2022/09/01 02:45:51;;;;;;;2.90;2.70;;;;;;;15.64;66.38;100720.84;4904595;29;20531;-75
2022/09/01 02:48:21;;;;;;;3.78;3.00;;;;;;;15.49;66.36;100700.41;4908068;29;20051;-75
2022/09/01 02:50:48;;;;;;;3.85;3.03;;;;;;;15.62;66.40;100720.94;4904301;29;20049;-75
2022/09/01 02:53:15;;;;;;;5.80;3.22;;;;;;;15.59;66.52;100715.78;4895911;29;20045;-75
2022/09/01 02:55:42;;;;;;;4.32;3.38;;;;;;;15.48;66.56;100718.25;4909529;29;20116;-75
2022/09/01 02:58:12;;;;;;;4.38;3.50;;;;;;;15.42;67.00;100713.31;4903615;29;20053;-77
2022/09/01 03:00:40;;;;;;;4.10;3.50;;;;;;;15.36;66.76;100703.00;4903987;29;20104;-75
2022/09/01 03:03:07;;;;;;;4.43;3.92;;;;;;;15.38;66.85;100704.63;4907292;29;20475;-76
2022/09/01 03:05:34;;;;;;;6.10;3.83;;;;;;;15.51;67.03;100723.41;4897569;29;20104;-76
2022/09/01 03:08:04;;;;;;;5.03;4.05;;;;;;;15.39;67.34;100697.47;4899567;29;20825;-76
2022/09/01 03:10:34;;;;;;;4.80;3.75;;;;;;;15.51;67.51;100722.53;4908114;29;20052;-76
2022/09/01 03:13:07;;;;;;;4.00;3.30;;;;;;;15.40;67.05;100700.06;4904327;29;20059;-76
2022/09/01 03:15:36;;;;;;;4.60;3.42;;;;;;;15.44;67.06;100719.38;4898908;29;20072;-74
2022/09/01 03:18:04;;;;;;;4.90;3.47;;;;;;;15.38;67.61;100717.97;4899936;29;20160;-73
2022/09/01 03:20:33;;;;;;;4.15;3.20;;;;;;;15.34;67.90;100713.75;4906958;29;20084;-73
2022/09/01 03:23:00;;;;;;;4.85;2.95;;;;;;;15.34;67.52;100710.25;4906617;29;20549;-73
2022/09/01 03:25:28;;;;;;;5.28;2.70;;;;;;;15.25;67.77;100694.81;4900782;29;20075;-74
2022/09/01 03:28:00;;;;;;;6.07;3.10;;;;;;;15.24;68.06;100706.44;4901287;29;20139;-73
2022/09/01 03:30:31;;;;;;;7.38;3.05;;;;;;;15.23;68.30;100712.72;4905616;29;20062;-75
2022/09/01 03:32:59;;;;;;;2.70;2.50;;;;;;;15.20;68.57;100719.09;4901990;29;20083;-75
2022/09/01 03:35:27;;;;;;;3.85;2.58;;;;;;;15.17;68.30;100713.06;4905705;29;20163;-73
2022/09/01 03:37:57;;;;;;;3.65;3.17;;;;;;;15.11;68.72;100714.28;4898434;29;20060;-72
2022/09/01 03:40:26;;;;;;;;;;;;;;;15.08;68.99;100717.19;4905773;29;20072;-74
2022/09/01 03:42:54;;;;;;;3.35;2.42;;;;;;;15.06;68.86;100717.25;4896074;29;20034;-74
2022/09/01 03:45:24;;;;;;;4.13;2.75;;;;;;;15.00;69.20;100712.28;4897381;29;20044;-75
2022/09/01 03:47:53;;;;;;;3.60;2.90;;;;;;;14.99;69.46;100709.72;4899666;29;20124;-75
2022/09/01 03:50:23;;;;;;;6.10;2.63;;;;;;;14.96;69.73;100713.41;4900011;29;20432;-75
2022/09/01 03:52:53;;;;;;;3.80;2.40;;;;;;;14.99;69.49;100710.56;4895807;29;20052;-75
2022/09/01 03:55:23;;;;;;;2.67;2.47;;;;;;;14.97;69.83;100708.94;4904139;29;20067;-75
2022/09/01 03:57:56;;;;;;;2.85;2.60;;;;;;;14.88;69.26;100699.69;4904853;28;20079;-74
2022/09/01 04:00:28;;;;;;;3.10;2.40;;;;;;;14.97;69.79;100704.47;4903595;29;20121;-75
2022/09/01 04:02:58;;;;;;;5.15;2.75;;;;;;;14.98;69.67;100703.53;4906120;29;20111;-75
2022/09/01 04:05:27;;;;;;;5.10;2.53;;;;;;;14.99;69.92;100705.25;4898650;29;20048;-75
2022/09/01 04:08:01;;;;;;;4.82;2.63;;;;;;;15.03;69.63;100712.09;4901861;29;20128;-76
2022/09/01 04:10:31;;;;;;;3.88;2.75;;;;;;;14.94;69.48;100695.81;4907683;29;20068;-76
2022/09/01 04:13:01;;;;;;;4.13;2.63;;;;;;;15.00;69.54;100698.09;4903935;29;20048;-73
2022/09/01 04:15:28;;;;;;;3.65;2.40;;;;;;;14.98;69.53;100703.53;4901586;29;20056;-75
2022/09/01 04:18:07;;;;;;;3.63;2.60;;;;;;;15.01;69.80;100707.81;4905899;29;20075;-74
2022/09/01 04:20:47;;;;;;;3.65;2.60;;;;;;;14.92;69.96;100697.72;4903019;29;20060;-74
2022/09/01 04:23:25;;;;;;;6.18;2.40;;;;;;;14.96;69.69;100708.09;4902303;29;20041;-74
2022/09/01 04:25:55;;;;;;;3.80;2.58;;;;;;;14.97;69.86;100709.81;4899868;29;20515;-72
2022/09/01 04:28:29;;;;;;;4.95;2.65;;;;;;;14.97;69.89;100716.94;4902464;29;20057;-74
2022/09/01 04:30:57;;;;;;;3.50;2.45;;;;;;;14.83;69.98;100696.44;4905239;29;20142;-71
2022/09/01 04:33:26;;;;;;;5.32;2.83;;;;;;;14.92;70.50;100714.56;4904978;29;20143;-75
2022/09/01 04:35:55;;;;;;;4.30;2.63;;;;;;;14.80;70.24;100693.09;4900668;29;20048;-74
2022/09/01 04:38:23;;;;;;;3.92;2.55;;;;;;;14.97;70.47;100723.13;4895617;29;20052;-76
2022/09/01 04:40:51;;;;;;;3.47;2.60;;;;;;;14.96;70.12;100716.09;4905658;29;20410;-74
2022/09/01 04:43:18;;;;;;;3.60;2.50;;;;;;;14.95;69.73;100714.38;4893439;29;20371;-75
2022/09/01 04:45:45;;;;;;;2.80;2.50;;;;;;;14.95;70.52;100721.53;4895184;29;20052;-76
2022/09/01 04:48:12;;;;;;;3.83;2.47;;;;;;;14.93;70.25;100721.63;4897179;29;20104;-76
2022/09/01 04:50:39;;;;;;;8.93;2.78;;;;;;;14.95;70.34;100724.19;4900737;29;20084;-75
2022/09/01 04:53:10;;;;;;;5.60;2.40;;;;;;;14.74;70.26;100689.00;4902627;29;20507;-74
2022/09/01 04:55:40;;;;;;;5.25;2.50;;;;;;;14.94;70.21;100723.34;4909826;29;20491;-74
2022/09/01 04:58:06;;;;;;;2.78;2.58;;;;;;;14.92;70.05;100713.72;4905945;29;20060;-75
2022/09/01 05:00:35;;;;;;;3.42;2.42;;;;;;;14.95;70.08;100721.53;4898819;29;20060;-73
2022/09/01 05:03:03;;;;;;;4.72;2.85;;;;;;;14.95;70.00;100717.03;4899375;29;20080;-75
2022/09/01 05:05:43;;;;;;;5.30;2.63;;;;;;;14.98;69.66;100719.53;4898333;29;20148;-73
2022/09/01 05:08:13;;;;;;;3.13;2.40;;;;;;;15.00;70.23;100725.63;4898699;29;20086;-76
2022/09/01 05:10:54;;;;;;;3.58;2.42;;;;;;;14.91;69.30;100704.00;4900774;29;20056;-75
2022/09/01 05:13:22;;;;;;;3.60;2.40;;;;;;;15.00;69.73;100722.97;4905371;29;20055;-75
2022/09/01 05:16:00;;;;;;;3.72;2.60;;;;;;;15.04;69.56;100727.16;4911997;29;20071;-75
2022/09/01 05:18:28;;;;;;;2.47;2.20;;;;;;;15.06;70.01;100721.75;4911661;29;20055;-75
2022/09/01 05:20:56;;;;;;;4.13;2.47;;;;;;;15.15;69.06;100723.84;4908722;29;20478;-76
2022/09/01 05:23:25;;;;;;;4.10;2.45;;;;;;;15.17;69.02;100724.59;4897186;29;20510;-75
2022/09/01 05:25:53;;;;;;;2.58;2.22;;;;;;;15.25;68.74;100732.16;4904867;29;20068;-75
2022/09/01 05:28:25;;;;;;;5.80;3.05;;;;;;;15.31;69.06;100737.09;4899913;29;20057;-76
2022/09/01 05:30:53;;;;;;;4.22;2.30;;;;;;;15.39;68.27;100735.69;4900733;29;20533;-77
2022/09/01 05:33:20;;;;;;;2.55;2.30;;;;;;;15.51;67.65;100742.09;4903960;29;20048;-75
2022/09/01 05:36:00;;;;;;;5.28;2.30;;;;;;;15.60;67.34;100744.19;4900074;29;20157;-75
2022/09/01 05:38:30;;;;;;;4.60;2.33;;;;;;;15.73;66.69;100738.97;4899433;29;20055;-76
2022/09/01 05:41:02;;;;;;;3.45;2.17;;;;;;;15.83;66.05;100733.91;4898921;29;20063;-76
2022/09/01 05:43:31;;;;;;;3.50;2.35;;;;;;;15.85;65.76;100724.84;4899650;29;20048;-75
2022/09/01 05:45:59;;;;;;;5.05;2.17;;;;;;;15.96;65.08;100745.50;4897104;29;20148;-75
2022/09/01 05:48:35;;;;;;;3.47;2.38;;;;;;;15.88;65.05;100713.97;4894965;29;20504;-74
2022/09/01 05:51:05;;;;;;;5.00;2.08;;;;;;;16.08;64.99;100744.72;4899566;29;20119;-73
2022/09/01 05:53:57;;;;;;;6.72;2.10;;;;;;;16.15;64.38;100740.72;4905538;29;20044;-75
2022/09/01 05:56:26;;;;;;;2.53;1.92;;;;;;;16.13;64.13;100739.97;4912135;29;20084;-75
2022/09/01 05:58:53;;;;;;;11.10;2.42;;;;;;;16.17;64.28;100744.16;4906989;29;20466;-74
2022/09/01 06:01:40;;;;;;;2.40;1.90;;;;;;;16.26;62.94;100735.53;4898568;29;20048;-73
2022/09/01 06:04:12;;;;;;;3.08;2.05;;;;;;;16.23;63.25;100738.38;4894214;29;20136;-74
2022/09/01 06:06:45;;;;;;;3.95;2.15;;;;;;;16.16;63.23;100731.75;4907303;29;20542;-75
2022/09/01 06:09:32;;;;;;;5.18;1.90;;;;;;;16.14;63.15;100739.84;4908582;29;20195;-76
2022/09/01 06:12:00;;;;;;;4.80;2.25;;;;;;;16.05;63.37;100732.44;4898863;29;20467;-76
2022/09/01 06:14:27;;;;;;;7.82;1.92;;;;;;;16.04;63.20;100724.53;4904548;29;20078;-77
2022/09/01 06:16:55;;;;;;;6.35;2.50;;;;;;;16.12;63.14;100749.78;4899469;29;20480;-74
2022/09/01 06:19:21;;;;;;;2.65;2.08;;;;;;;16.11;63.54;100744.53;4901584;29;20082;-76
2022/09/01 06:21:48;;;;;;;3.97;1.65;;;;;;;16.04;63.21;100724.53;4896985;29;20075;-76
2022/09/01 06:24:16;;;;;;;6.38;2.22;;;;;;;16.18;63.02;100737.00;4902305;29;20048;-75
2022/09/01 06:26:45;;;;;;;4.50;1.83;;;;;;;16.31;62.52;100756.63;4895122;29;20122;-76
2022/09/01 06:29:14;;;;;;;3.88;1.90;;;;;;;16.31;62.62;100751.28;4902295;29;20131;-76
2022/09/01 06:31:42;;;;;;;3.15;1.63;;;;;;;16.31;62.40;100751.28;4897902;29;20056;-76
2022/09/01 06:34:16;;;;;;;2.97;1.95;;;;;;;16.39;62.31;100767.66;4898088;29;20048;-75
2022/09/01 06:36:44;;;;;;;4.63;1.60;;;;;;;16.47;61.71;100752.84;4900970;29;20056;-74
2022/09/01 06:39:18;;;;;;;3.40;1.77;;;;;;;16.51;61.57;100764.19;4901540;29;20502;-77
2022/09/01 06:41:51;;;;;;;2.17;1.42;;;;;;;16.60;61.19;100757.38;4901629;29;20062;-74
2022/09/01 06:44:21;;;;;;;3.67;1.63;;;;;;;16.73;61.19;100766.31;4897402;29;20143;-74
2022/09/01 06:46:50;;;;;;;4.40;1.80;;;;;;;16.71;60.51;100746.84;4901502;29;20148;-75
2022/09/01 06:49:22;;;;;;;6.40;2.10;;;;;;;16.91;60.72;100762.44;4900610;29;20127;-75
2022/09/01 06:51:51;;;;;;;3.47;2.00;;;;;;;17.09;60.03;100771.03;4899191;29;20467;-78
2022/09/01 06:54:18;;;;;;;3.30;1.75;;;;;;;17.26;59.67;100761.84;4901280;29;20052;-73
2022/09/01 06:56:48;;;;;;;7.75;1.92;;;;;;;17.43;58.43;100765.06;4902297;29;20067;-75
2022/09/01 06:59:19;;;;;;;6.85;1.75;;;;;;;17.43;58.42;100737.44;4902339;29;20137;-76
2022/09/01 07:01:47;;;;;;;2.83;1.30;;;;;;;17.66;58.17;100763.47;4900777;29;20061;-73
2022/09/01 07:04:18;;;;;;;3.25;1.80;;;;;;;17.80;57.28;100752.63;4901041;29;20499;-75
2022/09/01 07:06:51;;;;;;;5.10;2.08;;;;;;;17.98;56.48;100754.97;4901682;29;20052;-72
2022/09/01 07:09:41;;;;;;;1.52;1.30;;;;;;;18.09;56.42;100758.59;4902179;29;20064;-75
2022/09/01 07:12:28;;;;;;;4.65;1.83;;;;;;;18.20;56.36;100763.19;4904733;29;20108;-74
2022/09/01 07:14:57;;;;;;;10.95;1.80;;;;;;;18.31;55.47;100768.59;4906771;29;20116;-74
2022/09/01 07:17:51;;;;;;;8.77;2.10;;;;;;;18.37;55.88;100772.69;4903208;29;20135;-74
2022/09/01 07:20:28;;;;;;;3.53;1.70;;;;;;;18.57;55.26;100761.34;4903752;29;20041;-74
2022/09/01 07:22:56;;;;;;;5.60;1.60;;;;;;;18.91;54.12;100770.41;4900372;29;20051;-77
2022/09/01 07:25:43;;;;;;;3.53;1.45;;;;;;;18.82;53.02;100741.59;4898468;29;20044;-73
2022/09/01 07:28:31;;;;;;;4.90;1.90;;;;;;;19.14;52.52;100774.91;4899227;29;20044;-75
2022/09/01 07:31:07;;;;;;;3.75;1.65;;;;;;;19.17;52.37;100769.28;4900749;29;20450;-75
2022/09/01 07:33:57;;;;;;;2.50;1.35;;;;;;;19.18;52.46;100768.31;4903523;29;20033;-75
2022/09/01 07:36:44;;;;;;;2.90;1.38;;;;;;;19.31;52.11;100756.63;4903124;29;20055;-74
2022/09/01 07:39:31;;;;;;;4.35;1.70;;;;;;;19.29;51.88;100754.06;4906163;29;20052;-74
2022/09/01 07:42:17;;;;;;;4.20;1.80;;;;;;;19.28;51.04;100755.03;4902440;29;20121;-76
2022/09/01 07:45:10;;;;;;;2.40;1.65;;;;;;;19.37;51.24;100765.03;4905280;29;20075;-74
2022/09/01 07:47:54;;;;;;;4.07;1.40;;;;;;;19.46;50.73;100774.22;4903057;29;20140;-75
2022/09/01 07:50:23;;;;;;;2.75;1.70;;;;;;;19.48;51.20;100781.19;4902888;29;20048;-72
2022/09/01 07:53:07;;;;;;;2.85;1.40;;;;;;;19.37;51.26;100758.81;4908762;29;20047;-73
2022/09/01 07:55:39;;;;;;;3.17;1.35;;;;;;;19.63;50.77;100789.06;4920490;29;20044;-75
2022/09/01 07:58:05;;;;;;;4.22;1.65;;;;;;;19.79;50.24;100787.75;4913216;29;20100;-75
2022/09/01 08:00:33;;;;;;;4.15;1.65;;;;;;;19.95;49.75;100766.72;4903417;29;20130;-75
2022/09/01 08:03:00;;;;;;;1.95;1.50;;;;;;;19.96;50.31;100771.13;4905557;29;20052;-75
2022/09/01 08:05:27;;;;;;;3.28;1.58;;;;;;;20.27;51.23;100784.78;4900447;29;20728;-77
2022/09/01 08:07:54;;;;;;;2.35;1.75;;;;;;;20.30;49.05;100782.69;4901954;29;20422;-75
2022/09/01 08:10:21;;;;;;;3.83;1.50;;;;;;;20.37;49.42;100787.59;4904923;29;20099;-74
2022/09/01 08:12:48;;;;;;;2.90;1.38;;;;;;;20.72;48.22;100771.25;4903416;29;20071;-76
2022/09/01 08:15:24;;;;;;;3.88;1.70;;;;;;;21.20;46.43;100790.53;4901951;29;20787;-76
2022/09/01 08:18:11;;;;;;;7.45;1.80;;;;;;;21.07;47.38;100779.06;4901998;29;20465;-75
2022/09/01 08:20:46;;;;;;;2.85;1.70;;;;;;;21.25;47.27;100799.91;4903693;29;20136;-76
2022/09/01 08:23:17;;;;;;;1.88;1.40;;;;;;;21.13;47.17;100782.06;4902834;29;20161;-75
2022/09/01 08:25:46;;;;;;;6.13;1.80;;;;;;;21.12;47.35;100798.34;4903700;29;20407;-75
2022/09/01 08:28:13;;;;;;;5.32;1.52;;;;;;;21.07;47.97;100789.84;4904200;29;20051;-75
2022/09/01 08:30:42;;;;;;;2.70;1.52;;;;;;;20.97;47.72;100795.97;4908117;29;20062;-75
2022/09/01 08:33:18;;;;;;;4.03;1.65;;;;;;;20.57;47.92;100771.53;4904074;29;20112;-75
2022/09/01 08:35:47;;;;;;;3.78;1.60;;;;;;;20.65;48.27;100798.66;4908293;29;20075;-76
2022/09/01 08:38:14;;;;;;;2.93;1.67;;;;;;;20.55;48.83;100799.56;4905095;29;20079;-76
2022/09/01 08:40:48;;;;;;;4.25;1.85;;;;;;;20.56;49.02;100793.19;4902593;29;20563;-74
2022/09/01 08:43:56;;;;;;;1.80;1.70;;;;;;;20.65;48.74;100795.97;4903534;29;20521;-75
2022/09/01 08:46:27;;;;;;;3.40;2.60;;;;;;;20.80;49.05;100795.69;4903640;29;20072;-77
2022/09/01 08:48:59;;;;;;;4.72;1.60;;;;;;;21.03;48.98;100797.31;4906595;29;20063;-75
2022/09/01 08:52:19;;;;;;;2.80;1.70;;;;;;;21.01;47.83;100793.88;4902671;29;20048;-75
2022/09/01 08:54:48;;;;;;;1.88;1.40;;;;;;;20.91;47.75;100788.44;4907541;29;20048;-76
2022/09/01 08:57:39;;;;;;;3.53;1.73;;;;;;;20.65;48.67;100758.28;4909753;29;20044;-72
2022/09/01 09:00:12;;;;;;;2.30;1.67;;;;;;;21.04;48.81;100792.78;4913275;29;20063;-74
2022/09/01 09:02:55;;;;;;;2.13;1.50;;;;;;;21.26;48.19;100774.69;4912616;29;20083;-75
2022/09/01 09:05:49;;;;;;;2.90;1.80;;;;;;;21.67;46.78;100790.00;4919395;29;20052;-76
2022/09/01 09:08:34;;;;;;;6.28;1.38;;;;;;;21.76;46.43;100782.06;4904063;29;20359;-77
2022/09/01 09:11:05;;;;;;;2.40;1.38;;;;;;;21.65;46.78;100774.94;4904801;29;20128;-74
2022/09/01 09:13:57;;;;;;;2.55;1.55;;;;;;;21.71;47.05;100790.59;4903681;29;20111;-80
2022/09/01 09:16:30;;;;;;;1.95;1.55;;;;;;;21.87;46.38;100782.88;4903711;29;20084;-73
2022/09/01 09:19:01;;;;;;;3.60;1.60;;;;;;;21.80;46.77;100787.06;4905287;29;20051;-77
2022/09/01 09:21:36;;;;;;;5.32;1.70;;;;;;;21.82;46.70;100789.63;4900373;29;20075;-76
2022/09/01 09:24:20;;;;;;;2.35;1.70;;;;;;;21.82;46.46;100784.25;4906861;29;20079;-77
2022/09/01 09:26:54;;;;;;;2.28;1.40;;;;;;;21.63;47.01;100780.47;4906114;29;20143;-73
2022/09/01 09:29:21;;;;;;;6.03;2.00;;;;;;;21.31;47.26;100756.28;4902626;29;20076;-78
2022/09/01 09:32:01;;;;;;;3.15;1.38;;;;;;;21.40;48.20;100765.44;4905371;28;20048;-77
2022/09/01 09:34:40;;;;;;;6.65;2.03;;;;;;;21.40;48.29;100768.13;4905759;29;20098;-79
2022/09/01 09:37:29;;;;;;;4.35;1.75;;;;;;;21.33;48.35;100767.78;4906364;29;20068;-78
2022/09/01 09:40:13;;;;;;;5.43;2.10;;;;;;;21.39;48.45;100763.72;4904551;29;20084;-76
2022/09/01 09:43:03;;;;;;;5.75;1.70;;;;;;;21.44;47.75;100750.69;4905688;29;20063;-74
2022/09/01 09:45:34;;;;;;;3.70;1.88;;;;;;;21.63;48.06;100766.13;4909435;29;20142;-73
2022/09/01 09:48:25;;;;;;;4.90;2.08;;;;;;;21.78;48.30;100748.59;4905627;29;20132;-77
2022/09/01 09:50:51;;;;;;;2.20;1.58;;;;;;;21.76;46.85;100728.16;4905241;29;20139;-79
2022/09/01 09:53:28;;;;;;;3.95;1.90;;;;;;;21.87;46.99;100750.50;4905143;29;20080;-77
2022/09/01 09:56:03;;;;;;;5.30;1.88;;;;;;;21.80;46.63;100725.06;4903568;29;20084;-74
2022/09/01 09:58:48;;;;;;;2.88;1.70;;;;;;;21.85;46.42;100724.66;4907076;29;20140;-74
2022/09/01 10:01:35;;;;;;;2.17;1.80;;;;;;;22.00;46.50;100740.38;4906804;29;20625;-72
2022/09/01 10:04:05;;;;;;;4.30;1.93;;;;;;;22.05;46.20;100731.84;4904944;29;20396;-79
2022/09/01 10:06:40;;;;;;;6.30;1.70;;;;;;;21.94;46.26;100713.91;4900259;29;20415;-74
2022/09/01 10:09:14;;;;;;;3.42;1.70;;;;;;;22.17;45.79;100740.69;4902544;29;20055;-74
2022/09/01 10:11:44;;;;;;;3.78;1.77;;;;;;;22.25;45.92;100740.84;4902609;29;20475;-78
2022/09/01 10:14:18;;;;;;;3.00;1.90;;;;;;;22.27;45.81;100704.66;4903531;29;20075;-74
2022/09/01 10:17:12;;;;;;;4.15;1.92;;;;;;;22.57;45.10;100719.88;4902590;29;20039;-78
2022/09/01 10:19:49;;;;;;;3.10;1.70;;;;;;;22.75;45.51;100720.03;4903351;29;20135;-78
2022/09/01 10:22:16;;;;;;;2.20;2.00;;;;;;;22.84;44.11;100721.03;4905966;29;20080;-76
2022/09/01 10:24:43;;;;;;;2.08;1.70;;;;;;;22.88;44.43;100719.75;4911486;29;20045;-77
2022/09/01 10:27:22;;;;;;;2.28;1.65;;;;;;;22.90;42.93;100690.78;4906660;29;20056;-77
2022/09/01 10:30:01;;;;;;;2.65;1.50;;;;;;;23.02;42.70;100712.06;4904707;29;20056;-77
2022/09/01 10:32:54;;;;;;;3.65;1.70;;;;;;;23.11;41.97;100712.22;4918195;29;20092;-71
2022/09/01 10:35:33;;;;;;;1.85;1.75;;;;;;;23.12;42.22;100716.63;4926196;29;20620;-71
2022/09/01 10:38:06;;;;;;;2.58;1.63;;;;;;;23.25;41.93;100726.13;4919771;29;20060;-77
2022/09/01 10:40:39;;;;;;;2.72;1.58;;;;;;;23.44;41.74;100720.69;4909886;29;20052;-77
2022/09/01 10:43:37;;;;;;;4.25;2.22;;;;;;;23.60;41.48;100706.56;4913100;29;20668;-75
2022/09/01 10:46:27;;;;;;;1.92;1.60;;;;;;;23.58;40.89;100692.34;4912095;29;20534;-76
2022/09/01 10:49:32;;;;;;;3.65;1.80;;;;;;;23.36;40.95;100714.28;4918563;29;20067;-75
2022/09/01 10:51:59;;;;;;;2.40;1.65;;;;;;;23.18;41.84;100713.31;4906450;29;20120;-73
2022/09/01 10:54:39;;;;;;;2.05;1.67;;;;;;;23.21;41.71;100710.34;4924442;29;20054;-77
2022/09/01 10:57:27;;;;;;;2.28;1.60;;;;;;;23.42;41.92;100711.00;4919783;29;20127;-74
2022/09/01 11:00:23;;;;;;;4.32;1.90;;;;;;;23.60;40.96;100684.09;4918076;29;20055;-75
2022/09/01 11:03:11;;;;;;;3.40;2.00;;;;;;;23.90;40.91;100704.59;4900176;29;21733;-78
2022/09/01 11:06:08;;;;;;;3.30;1.70;;;;;;;24.08;40.45;100700.91;4899524;29;20067;-74
2022/09/01 11:08:43;;;;;;;4.60;1.80;;;;;;;24.06;40.93;100678.59;4908623;29;20052;-76
2022/09/01 11:11:46;;;;;;;4.30;2.00;;;;;;;24.09;40.60;100699.91;4902266;29;20048;-77
2022/09/01 11:14:21;;;;;;;2.95;1.95;;;;;;;23.94;40.33;100685.19;4907939;29;20044;-75
2022/09/01 11:17:13;;;;;;;4.95;1.90;;;;;;;23.89;40.22;100682.09;4896058;29;20104;-77
2022/09/01 11:20:05;;;;;;;5.93;1.92;;;;;;;23.90;41.21;100672.97;4899515;29;20151;-74
2022/09/01 11:22:42;;;;;;;1.75;1.52;;;;;;;24.15;39.73;100684.91;4895430;29;20052;-76
2022/09/01 11:25:27;;;;;;;3.65;1.42;;;;;;;24.30;39.68;100693.41;4894233;29;20079;-75
2022/09/01 11:28:30;;;;;;;4.90;1.85;;;;;;;24.51;39.54;100685.84;4896198;29;20051;-76
2022/09/01 11:31:07;;;;;;;1.98;1.60;;;;;;;24.75;38.49;100687.91;4902155;29;20135;-76
2022/09/01 11:33:43;;;;;;;1.60;1.50;;;;;;;24.83;36.92;100688.00;4900246;29;20143;-76
2022/09/01 11:36:35;;;;;;;3.33;1.75;;;;;;;24.63;37.19;100659.38;4894014;29;20041;-76
2022/09/01 11:39:17;;;;;;;1.77;1.58;;;;;;;24.53;36.84;100662.19;4903834;29;20636;-76
2022/09/01 11:41:55;;;;;;;2.88;1.50;;;;;;;24.65;37.11;100674.47;4894849;29;20056;-75
2022/09/01 11:44:32;;;;;;;1.40;1.30;;;;;;;24.70;36.79;100668.59;4895195;29;20079;-74
2022/09/01 11:47:06;;;;;;;2.40;1.75;;;;;;;24.45;37.26;100651.25;4895180;29;20056;-76
2022/09/01 11:49:47;;;;;;;3.47;1.77;;;;;;;24.54;37.21;100660.31;4896168;29;20076;-76
2022/09/01 11:52:17;;;;;;;3.53;1.45;;;;;;;24.75;36.27;100667.09;4896228;29;20436;-74
2022/09/01 11:54:47;;;;;;;3.47;1.63;;;;;;;24.72;36.28;100643.03;4899887;29;20067;-75
2022/09/01 11:57:37;;;;;;;2.47;1.77;;;;;;;25.04;35.75;100660.56;4905729;29;20107;-74
2022/09/01 12:00:11;;;;;;;2.10;1.88;;;;;;;24.92;35.78;100653.69;4899766;29;20597;-73
2022/09/01 12:02:50;;;;;;;2.47;1.50;;;;;;;24.83;36.17;100656.34;4898768;29;20436;-77
2022/09/01 12:05:30;;;;;;;2.53;1.48;;;;;;;24.83;36.02;100631.97;4900770;29;20132;-75